createdAt,value
2019-01-15T00:02:05.636Z,21.93
2019-01-15T00:04:35.260Z,20.82
2019-01-15T00:07:04.796Z,23.25
2019-01-15T00:09:35.255Z,25.80
2019-01-15T00:12:08.006Z,20.72
2019-01-15T00:14:36.251Z,25.60
2019-01-15T00:17:05.733Z,20.90
2019-01-15T00:19:35.470Z,21.40
2019-01-15T00:22:05.067Z,24.07
2019-01-15T00:24:34.580Z,19.75
2019-01-15T00:27:04.293Z,19.00
2019-01-15T00:29:34.117Z,22.65
2019-01-15T00:32:03.710Z,19.25
2019-01-15T00:34:33.430Z,20.35
2019-01-15T00:37:03.164Z,20.90
2019-01-15T00:39:32.738Z,22.55
2019-01-15T00:42:02.352Z,18.02
2019-01-15T00:44:31.968Z,18.55
2019-01-15T00:47:01.665Z,20.95
2019-01-15T00:49:31.276Z,17.75
2019-01-15T00:52:00.777Z,18.27
2019-01-15T00:54:30.394Z,14.98
2019-01-15T00:57:00.038Z,17.55
2019-01-15T00:59:29.720Z,18.75
2019-01-15T01:01:59.314Z,20.52
2019-01-15T01:04:28.913Z,18.05
2019-01-15T01:06:58.539Z,19.00
2019-01-15T01:09:28.180Z,16.82
2019-01-15T01:11:57.749Z,19.40
2019-01-15T01:14:27.464Z,16.20
2019-01-15T01:16:57.077Z,18.32
2019-01-15T01:19:26.688Z,19.07
2019-01-15T01:21:56.279Z,16.35
2019-01-15T01:24:25.906Z,16.27
2019-01-15T01:26:55.617Z,15.78
2019-01-15T01:29:25.125Z,17.65
2019-01-15T01:31:54.718Z,15.85
2019-01-15T01:34:24.305Z,14.60
2019-01-15T01:36:53.941Z,15.68
2019-01-15T01:39:23.661Z,14.28
2019-01-15T01:41:53.212Z,14.50
2019-01-15T01:44:22.872Z,15.65
2019-01-15T01:46:52.378Z,16.67
2019-01-15T01:49:22.197Z,14.75
2019-01-15T01:51:51.812Z,13.62
2019-01-15T01:54:21.510Z,14.05
2019-01-15T01:56:51.283Z,13.03
2019-01-15T01:59:20.787Z,12.47
2019-01-15T02:01:50.441Z,13.93
2019-01-15T02:04:20.068Z,18.80
2019-01-15T02:06:49.637Z,14.07
2019-01-15T02:09:19.157Z,12.35
2019-01-15T02:11:48.771Z,14.83
2019-01-15T02:14:18.489Z,13.65
2019-01-15T02:16:47.988Z,10.08
2019-01-15T02:19:17.705Z,11.80
2019-01-15T02:21:47.405Z,14.10
2019-01-15T02:24:17.489Z,12.15
2019-01-15T02:26:47.032Z,10.85
2019-01-15T02:29:16.736Z,12.28
2019-01-15T02:31:46.505Z,11.60
2019-01-15T02:34:16.164Z,11.20
2019-01-15T02:36:45.766Z,12.20
2019-01-15T02:39:15.332Z,11.63
2019-01-15T02:41:44.995Z,10.82
2019-01-15T02:44:14.613Z,12.25
2019-01-15T02:46:44.202Z,11.83
2019-01-15T02:49:13.805Z,13.20
2019-01-15T02:51:43.457Z,13.32
2019-01-15T02:54:13.130Z,10.78
2019-01-15T02:56:42.634Z,12.37
2019-01-15T02:59:12.248Z,12.47
2019-01-15T03:01:41.981Z,9.75
2019-01-15T03:04:11.446Z,9.73
2019-01-15T03:06:41.071Z,10.43
2019-01-15T03:09:10.687Z,11.65
2019-01-15T03:11:40.426Z,9.30
2019-01-15T03:14:10.113Z,10.53
2019-01-15T03:16:39.709Z,9.33
2019-01-15T03:19:09.307Z,10.08
2019-01-15T03:21:38.851Z,12.33
2019-01-15T03:24:08.549Z,9.28
2019-01-15T03:26:38.146Z,8.15
2019-01-15T03:29:07.540Z,8.05
2019-01-15T03:31:37.278Z,8.50
2019-01-15T03:34:06.865Z,9.15
2019-01-15T03:36:37.750Z,8.53
2019-01-15T03:39:09.810Z,11.12
2019-01-15T03:41:39.612Z,10.68
2019-01-15T03:44:09.197Z,8.08
2019-01-15T03:46:38.807Z,7.78
2019-01-15T03:49:08.395Z,9.75
2019-01-15T03:51:38.150Z,9.50
2019-01-15T03:54:07.838Z,8.05
2019-01-15T03:56:37.437Z,9.93
2019-01-15T03:59:07.036Z,8.50
2019-01-15T04:01:36.604Z,6.95
2019-01-15T04:04:06.403Z,6.78
2019-01-15T04:06:35.943Z,9.83
2019-01-15T04:09:07.007Z,9.63
2019-01-15T04:11:36.554Z,9.20
2019-01-15T04:14:06.121Z,9.15
2019-01-15T04:16:35.748Z,6.45
2019-01-15T04:19:05.468Z,9.85
2019-01-15T04:21:35.076Z,7.35
2019-01-15T04:24:04.554Z,8.33
2019-01-15T04:26:34.223Z,7.45
2019-01-15T04:29:03.811Z,7.05
2019-01-15T04:31:33.388Z,6.97
2019-01-15T04:34:02.986Z,7.45
2019-01-15T04:36:32.615Z,7.67
2019-01-15T04:39:02.103Z,5.97
2019-01-15T04:41:31.725Z,8.28
2019-01-15T04:44:01.429Z,8.13
2019-01-15T04:46:31.141Z,8.10
2019-01-15T04:49:02.619Z,7.95
2019-01-15T04:51:32.317Z,7.78
2019-01-15T04:54:01.906Z,6.40
2019-01-15T04:56:33.024Z,6.03
2019-01-15T04:59:02.783Z,5.90
2019-01-15T05:01:32.351Z,6.87
2019-01-15T05:04:01.879Z,5.83
2019-01-15T05:06:31.615Z,7.87
2019-01-15T05:09:01.233Z,6.55
2019-01-15T05:11:30.836Z,5.70
2019-01-15T05:14:00.521Z,6.15
2019-01-15T05:16:30.226Z,9.15
2019-01-15T05:19:01.171Z,7.87
2019-01-15T05:21:30.692Z,6.78
2019-01-15T05:24:00.289Z,6.17
2019-01-15T05:26:30.094Z,8.58
2019-01-15T05:29:00.530Z,10.53
2019-01-15T05:31:30.143Z,13.15
2019-01-15T05:33:59.952Z,11.57
2019-01-15T05:36:29.683Z,17.05
2019-01-15T05:38:59.386Z,19.02
2019-01-15T05:41:28.974Z,23.07
2019-01-15T05:43:58.694Z,22.00
2019-01-15T05:46:28.205Z,29.07
2019-01-15T05:48:57.909Z,26.17
2019-01-15T05:51:41.163Z,29.85
2019-01-15T05:54:10.769Z,26.10
2019-01-15T05:56:40.961Z,25.95
2019-01-15T05:59:10.470Z,27.15
2019-01-15T06:01:40.544Z,25.27
2019-01-15T06:04:10.136Z,25.80
2019-01-15T06:06:39.709Z,25.75
2019-01-15T06:09:11.101Z,26.60
2019-01-15T06:11:40.696Z,23.55
2019-01-15T06:14:10.622Z,27.98
2019-01-15T06:16:40.181Z,28.75
2019-01-15T06:19:09.881Z,27.22
2019-01-15T06:21:39.498Z,43.48
2019-01-15T06:24:09.123Z,21.90
2019-01-15T06:26:38.727Z,28.25
2019-01-15T06:29:08.527Z,22.55
2019-01-15T06:31:38.270Z,18.77
2019-01-15T06:34:08.508Z,24.23
2019-01-15T06:36:38.047Z,21.52
2019-01-15T06:39:09.326Z,22.45
2019-01-15T06:41:38.975Z,20.95
2019-01-15T06:44:08.665Z,24.37
2019-01-15T06:46:38.248Z,26.15
2019-01-15T06:49:07.968Z,23.70
2019-01-15T06:51:38.516Z,19.92
2019-01-15T06:54:08.119Z,23.52
2019-01-15T06:56:37.725Z,26.82
2019-01-15T06:59:07.433Z,29.95
2019-01-15T07:01:37.136Z,22.77
2019-01-15T07:04:06.622Z,25.20
2019-01-15T07:06:36.170Z,20.37
2019-01-15T07:09:08.593Z,20.62
2019-01-15T07:11:37.989Z,22.15
2019-01-15T07:14:08.190Z,23.67
2019-01-15T07:16:37.757Z,20.20
2019-01-15T07:19:07.527Z,20.62
2019-01-15T07:21:37.492Z,18.87
2019-01-15T07:24:07.420Z,16.32
2019-01-15T07:26:37.021Z,17.98
2019-01-15T07:29:06.729Z,20.80
2019-01-15T07:31:36.322Z,18.87
2019-01-15T07:34:05.808Z,16.48
2019-01-15T07:36:35.353Z,15.93
2019-01-15T07:39:07.078Z,15.78
2019-01-15T07:41:36.673Z,15.45
2019-01-15T07:44:06.257Z,17.82
2019-01-15T07:46:35.937Z,14.30
2019-01-15T07:49:05.570Z,15.25
2019-01-15T07:51:35.095Z,16.95
2019-01-15T07:54:04.829Z,19.07
2019-01-15T07:56:34.458Z,13.22
2019-01-15T07:59:04.086Z,14.18
2019-01-15T08:01:33.787Z,16.65
2019-01-15T08:04:03.599Z,14.35
2019-01-15T08:06:33.265Z,13.80
2019-01-15T08:09:04.702Z,13.72
2019-01-15T08:11:34.330Z,13.68
2019-01-15T08:14:03.959Z,12.07
2019-01-15T08:16:33.593Z,12.28
2019-01-15T08:19:03.205Z,13.32
2019-01-15T08:21:32.816Z,15.70
2019-01-15T08:24:02.517Z,20.32
2019-01-15T08:26:31.985Z,13.58
2019-01-15T08:29:01.789Z,11.90
2019-01-15T08:31:31.267Z,18.20
2019-01-15T08:34:00.622Z,14.03
2019-01-15T08:36:30.154Z,11.53
2019-01-15T08:38:59.950Z,11.93
2019-01-15T08:41:29.611Z,11.00
2019-01-15T08:43:59.254Z,11.97
2019-01-15T08:46:28.716Z,11.60
2019-01-15T08:48:58.287Z,11.97
2019-01-15T08:51:28.126Z,12.47
2019-01-15T08:53:57.789Z,10.88
2019-01-15T08:56:27.299Z,13.05
2019-01-15T08:58:56.982Z,10.68
2019-01-15T09:01:26.638Z,10.15
2019-01-15T09:03:56.261Z,14.65
2019-01-15T09:06:25.764Z,12.63
2019-01-15T09:08:55.466Z,14.25
2019-01-15T09:11:25.152Z,20.15
2019-01-15T09:13:54.804Z,24.92
2019-01-15T09:16:24.464Z,31.85
2019-01-15T09:18:54.015Z,33.88
2019-01-15T09:21:23.657Z,37.83
2019-01-15T09:23:53.323Z,38.80
2019-01-15T09:26:22.661Z,44.58
2019-01-15T09:28:52.222Z,41.65
2019-01-15T09:31:22.059Z,48.78
2019-01-15T09:33:51.663Z,51.15
2019-01-15T09:36:21.245Z,51.33
2019-01-15T09:38:50.900Z,56.28
2019-01-15T09:41:20.488Z,52.90
2019-01-15T09:43:49.982Z,63.05
2019-01-15T09:46:19.627Z,78.97
2019-01-15T09:48:49.413Z,86.63
2019-01-15T09:51:18.908Z,90.65
2019-01-15T09:53:48.545Z,102.02
2019-01-15T09:56:18.041Z,95.45
2019-01-15T09:58:47.543Z,96.87
2019-01-15T10:01:17.242Z,109.20
2019-01-15T10:03:46.871Z,109.65
2019-01-15T10:06:16.672Z,121.13
2019-01-15T10:08:46.190Z,138.07
2019-01-15T10:11:15.791Z,135.22
2019-01-15T10:13:45.379Z,164.15
2019-01-15T10:16:15.037Z,162.25
2019-01-15T10:18:44.542Z,162.25
2019-01-15T10:21:13.968Z,153.18
2019-01-15T10:23:43.518Z,161.20
2019-01-15T10:26:13.078Z,147.40
2019-01-15T10:28:42.566Z,164.28
2019-01-15T10:31:54.716Z,153.15
2019-01-15T10:34:37.708Z,167.77
2019-01-15T10:37:05.861Z,169.05
2019-01-15T10:39:35.446Z,173.78
2019-01-15T10:42:05.126Z,190.68
2019-01-15T10:44:34.880Z,184.13
2019-01-15T10:47:04.374Z,184.50
2019-01-15T10:49:33.687Z,178.23
2019-01-15T10:52:03.381Z,178.53
2019-01-15T10:54:32.973Z,126.30
2019-01-15T10:57:02.532Z,188.35
2019-01-15T10:59:32.226Z,197.07
2019-01-15T11:02:01.773Z,201.12
2019-01-15T11:04:31.442Z,192.20
2019-01-15T11:07:01.075Z,202.10
2019-01-15T11:09:30.632Z,202.00
2019-01-15T11:12:00.351Z,189.77
2019-01-15T11:14:30.167Z,183.60
2019-01-15T11:16:59.753Z,184.67
2019-01-15T11:19:29.636Z,209.95
2019-01-15T11:21:59.239Z,172.57
2019-01-15T11:24:28.841Z,197.47
2019-01-15T11:26:58.415Z,163.65
2019-01-15T11:29:27.956Z,175.42
2019-01-15T11:31:57.553Z,181.22
2019-01-15T11:34:27.032Z,178.90
2019-01-15T11:36:56.616Z,185.03
2019-01-15T11:39:26.387Z,162.43
2019-01-15T11:41:55.979Z,170.47
2019-01-15T11:44:25.580Z,166.68
2019-01-15T11:46:55.325Z,170.55
2019-01-15T11:49:25.010Z,182.05
2019-01-15T11:51:54.625Z,180.30
2019-01-15T11:54:24.425Z,177.80
2019-01-15T11:56:54.037Z,178.23
2019-01-15T11:59:24.159Z,192.95
2019-01-15T12:02:05.833Z,157.20
2019-01-15T12:04:52.828Z,150.53
2019-01-15T12:07:39.644Z,170.35
2019-01-15T12:10:25.332Z,196.22
2019-01-15T12:13:13.003Z,188.37
2019-01-15T12:16:01.446Z,184.85
2019-01-15T12:18:48.857Z,181.95
2019-01-15T12:21:46.300Z,211.35
2019-01-15T12:24:31.935Z,152.78
2019-01-15T12:27:09.173Z,172.02
2019-01-15T12:30:12.787Z,168.87
2019-01-15T12:33:04.221Z,154.32
2019-01-15T12:36:04.798Z,179.87
2019-01-15T12:39:02.111Z,153.90
2019-01-15T12:41:41.218Z,174.47
2019-01-15T12:44:26.623Z,164.62
2019-01-15T12:47:06.652Z,169.13
2019-01-15T12:49:53.968Z,172.07
2019-01-15T12:52:40.813Z,184.15
2019-01-15T12:55:44.192Z,185.65
2019-01-15T12:58:31.756Z,193.87
2019-01-15T13:01:22.980Z,191.50
2019-01-15T13:04:10.054Z,218.97
2019-01-15T13:07:01.342Z,183.78
2019-01-15T13:09:49.519Z,176.87
2019-01-15T13:12:28.476Z,183.18
2019-01-15T13:15:14.329Z,200.22
2019-01-15T13:18:02.730Z,182.07
2019-01-15T13:20:49.893Z,215.43
2019-01-15T13:23:50.527Z,196.80
2019-01-15T13:26:53.781Z,201.02
2019-01-15T13:29:47.089Z,193.75
2019-01-15T13:32:47.420Z,198.47
2019-01-15T13:35:34.310Z,203.25
2019-01-15T13:38:21.379Z,195.65
2019-01-15T13:41:15.576Z,198.72
2019-01-15T13:44:10.386Z,200.57
2019-01-15T13:47:11.085Z,185.43
2019-01-15T13:49:53.257Z,199.55
2019-01-15T13:52:41.673Z,182.78
2019-01-15T13:55:28.513Z,196.32
2019-01-15T13:58:15.747Z,202.47
2019-01-15T14:00:58.145Z,197.72
2019-01-15T14:04:04.318Z,198.78
2019-01-15T14:06:41.817Z,204.80
2019-01-15T14:09:32.709Z,222.75
2019-01-15T14:12:14.919Z,195.28
2019-01-15T14:14:59.114Z,210.75
2019-01-15T14:17:38.086Z,198.78
2019-01-15T14:20:39.551Z,207.07
2019-01-15T14:23:40.167Z,214.30
2019-01-15T14:26:27.164Z,231.30
2019-01-15T14:29:14.094Z,255.27
2019-01-15T14:32:00.955Z,237.00
2019-01-15T14:34:47.662Z,244.68
2019-01-15T14:37:28.064Z,261.90
2019-01-15T14:40:28.816Z,270.35
2019-01-15T14:43:15.854Z,249.70
2019-01-15T14:46:19.361Z,259.07
2019-01-15T14:49:10.776Z,257.43
2019-01-15T14:51:49.157Z,268.15
2019-01-15T14:54:35.909Z,271.30
2019-01-15T14:57:30.321Z,253.88
2019-01-15T15:00:27.858Z,266.30
2019-01-15T15:03:22.120Z,263.55
2019-01-15T15:06:10.488Z,264.88
2019-01-15T15:08:57.651Z,250.55
2019-01-15T15:11:38.793Z,241.95
2019-01-15T15:14:24.311Z,250.35
2019-01-15T15:17:11.217Z,255.52
2019-01-15T15:19:58.523Z,234.57
2019-01-15T15:22:46.952Z,230.87
2019-01-15T15:25:34.076Z,246.90
2019-01-15T15:28:26.612Z,219.40
2019-01-15T15:31:08.126Z,227.05
2019-01-15T15:33:54.976Z,233.63
2019-01-15T15:36:42.303Z,219.30
2019-01-15T15:39:20.063Z,220.55
2019-01-15T15:42:26.689Z,226.02
2019-01-15T15:45:13.603Z,235.60
2019-01-15T15:48:02.084Z,227.68
2019-01-15T15:50:39.723Z,208.30
2019-01-15T15:53:34.109Z,240.43
2019-01-15T15:56:21.604Z,220.15
2019-01-15T15:59:19.240Z,221.10
2019-01-15T16:02:06.222Z,217.75
2019-01-15T16:04:54.701Z,211.82
2019-01-15T16:07:55.712Z,210.20
2019-01-15T16:10:44.112Z,215.32
2019-01-15T16:13:27.652Z,221.05
2019-01-15T16:16:19.262Z,212.02
2019-01-15T16:19:02.769Z,205.62
2019-01-15T16:21:53.900Z,184.85
2019-01-15T16:24:40.769Z,197.82
2019-01-15T16:27:32.021Z,197.43
2019-01-15T16:30:19.086Z,187.32
2019-01-15T16:33:06.369Z,186.25
2019-01-15T16:36:07.195Z,177.50
2019-01-15T16:38:58.909Z,179.95
2019-01-15T16:41:49.029Z,175.93
2019-01-15T16:44:38.593Z,172.00
2019-01-15T16:47:31.611Z,170.97
2019-01-15T16:50:32.411Z,170.97
2019-01-15T16:53:30.816Z,128.45
2019-01-15T16:56:16.369Z,159.57
2019-01-15T16:59:07.836Z,154.75
2019-01-15T17:02:05.050Z,149.95
2019-01-15T17:04:52.010Z,150.27
2019-01-15T17:07:43.388Z,157.88
2019-01-15T17:10:30.168Z,144.57
2019-01-15T17:13:24.549Z,141.47
2019-01-15T17:16:11.381Z,139.52
2019-01-15T17:18:59.679Z,139.77
2019-01-15T17:21:47.261Z,138.55
2019-01-15T17:24:50.907Z,133.70
2019-01-15T17:27:36.825Z,133.70
2019-01-15T17:30:31.102Z,125.70
2019-01-15T17:33:17.626Z,125.40
2019-01-15T17:36:21.265Z,126.18
2019-01-15T17:39:08.249Z,118.77
2019-01-15T17:41:51.344Z,118.65
2019-01-15T17:44:40.437Z,119.65
2019-01-15T17:47:27.257Z,121.95
2019-01-15T17:50:14.139Z,114.92
2019-01-15T17:53:05.791Z,115.52
2019-01-15T17:56:06.185Z,107.30
2019-01-15T17:59:03.792Z,108.50
2019-01-15T18:02:52.730Z,111.60
2019-01-15T18:05:44.200Z,114.72
2019-01-15T18:09:19.151Z,107.07
2019-01-15T18:12:25.696Z,109.92
2019-01-15T18:16:01.047Z,100.85
2019-01-15T18:18:46.572Z,105.47
2019-01-15T18:21:42.749Z,102.07
2019-01-15T18:25:13.445Z,101.85
2019-01-15T18:28:24.393Z,104.32
2019-01-15T18:31:51.979Z,99.13
2019-01-15T18:35:24.346Z,95.90
2019-01-15T18:38:15.396Z,101.07
2019-01-15T18:41:42.964Z,92.40
2019-01-15T18:44:29.766Z,93.12
2019-01-15T18:47:16.943Z,94.25
2019-01-15T18:50:11.023Z,95.38
2019-01-15T18:52:59.492Z,91.87
2019-01-15T18:55:50.338Z,83.78
2019-01-15T18:58:37.657Z,88.12
2019-01-15T19:01:26.067Z,85.85
2019-01-15T19:04:29.796Z,89.90
2019-01-15T19:07:20.903Z,81.20
2019-01-15T19:10:15.232Z,80.83
2019-01-15T19:13:02.484Z,78.65
2019-01-15T19:15:50.328Z,74.35
2019-01-15T19:18:42.870Z,73.37
2019-01-15T19:21:24.042Z,73.17
2019-01-15T19:24:11.616Z,74.58
2019-01-15T19:26:59.312Z,72.97
2019-01-15T19:29:50.869Z,70.52
2019-01-15T19:32:39.291Z,76.92
2019-01-15T19:35:19.455Z,73.10
2019-01-15T19:38:07.866Z,71.95
2019-01-15T19:40:59.114Z,69.80
2019-01-15T19:43:56.703Z,78.42
2019-01-15T19:46:50.823Z,69.77
2019-01-15T19:49:41.034Z,66.95
2019-01-15T19:52:47.715Z,64.65
2019-01-15T19:55:39.179Z,62.60
2019-01-15T19:58:38.149Z,63.05
2019-01-15T20:01:35.492Z,66.15
2019-01-15T20:04:29.574Z,66.75
2019-01-15T20:07:18.075Z,60.80
2019-01-15T20:10:20.492Z,61.90
2019-01-15T20:13:21.270Z,59.25
2019-01-15T20:16:12.721Z,62.10
2019-01-15T20:19:01.232Z,61.75
2019-01-15T20:21:55.487Z,58.08
2019-01-15T20:24:43.944Z,59.25
2019-01-15T20:27:34.377Z,62.00
2019-01-15T20:30:28.770Z,57.70
2019-01-15T20:33:16.357Z,55.48
2019-01-15T20:36:12.035Z,55.52
2019-01-15T20:39:12.726Z,54.08
2019-01-15T20:42:07.142Z,54.85
2019-01-15T20:45:07.742Z,53.83
2019-01-15T20:48:00.814Z,58.00
2019-01-15T20:50:49.244Z,57.55
2019-01-15T20:53:40.512Z,53.48
2019-01-15T20:56:28.910Z,46.68
2019-01-15T20:59:23.156Z,47.78
2019-01-15T21:02:11.546Z,48.13
2019-01-15T21:05:10.984Z,47.48
2019-01-15T21:08:11.596Z,45.78
2019-01-15T21:11:09.175Z,48.80
2019-01-15T21:14:03.710Z,47.98
2019-01-15T21:16:55.029Z,45.92
2019-01-15T21:19:42.304Z,49.18
2019-01-15T21:22:46.189Z,45.88
2019-01-15T21:25:34.641Z,46.25
2019-01-15T21:28:26.074Z,45.00
2019-01-15T21:31:13.499Z,47.55
2019-01-15T21:34:05.032Z,44.73
2019-01-15T21:36:52.134Z,44.08
2019-01-15T21:39:40.592Z,41.77
2019-01-15T21:42:44.545Z,43.17
2019-01-15T21:45:48.034Z,42.40
2019-01-15T21:48:42.392Z,42.00
2019-01-15T21:51:46.041Z,40.80
2019-01-15T21:54:31.378Z,41.58
2019-01-15T21:57:11.550Z,38.38
2019-01-15T22:00:04.157Z,39.98
2019-01-15T22:02:41.807Z,41.05
2019-01-15T22:05:27.272Z,38.98
2019-01-15T22:08:23.109Z,37.28
2019-01-15T22:11:23.570Z,37.95
2019-01-15T22:14:11.982Z,36.63
2019-01-15T22:16:59.093Z,37.17
2019-01-15T22:19:47.556Z,35.38
2019-01-15T22:22:36.937Z,34.15
2019-01-15T22:25:41.442Z,36.48
2019-01-15T22:28:21.498Z,35.23
2019-01-15T22:31:12.814Z,33.45
2019-01-15T22:34:04.863Z,33.73
2019-01-15T22:37:03.044Z,34.15
2019-01-15T22:40:00.335Z,30.60
2019-01-15T22:42:40.860Z,29.80
2019-01-15T22:45:36.140Z,30.82
2019-01-15T22:48:36.833Z,33.18
2019-01-15T22:51:32.641Z,31.05
2019-01-15T22:54:26.709Z,33.40
2019-01-15T22:57:20.946Z,33.48
2019-01-15T23:00:09.325Z,30.00
2019-01-15T23:02:56.388Z,28.85
2019-01-15T23:05:39.896Z,28.45
2019-01-15T23:08:26.900Z,26.65
2019-01-15T23:11:33.669Z,32.50
2019-01-15T23:14:11.410Z,31.40
2019-01-15T23:16:52.677Z,27.85
2019-01-15T23:19:55.268Z,26.90
2019-01-15T23:22:42.620Z,29.25
2019-01-15T23:25:37.045Z,24.95
2019-01-15T23:28:22.734Z,24.92
2019-01-15T23:31:00.620Z,26.75
2019-01-15T23:33:47.797Z,27.65
2019-01-15T23:36:51.319Z,26.12
2019-01-15T23:39:48.234Z,26.48
2019-01-15T23:42:39.489Z,26.50
2019-01-15T23:45:27.886Z,26.10
2019-01-15T23:48:28.249Z,26.20
2019-01-15T23:51:19.470Z,23.90
2019-01-15T23:54:16.801Z,24.15
2019-01-15T23:57:05.228Z,27.70
2019-01-15T23:59:54.092Z,22.73
